TimeIST,TemperatureF,Dew PointF,Humidity,Sea Level PressureIn,VisibilityMPH,Wind Direction,Wind SpeedMPH,Gust SpeedMPH,PrecipitationIn,Events,Conditions,WindDirDegrees,DateUTC
12:10 AM,77.0,75.2,94,29.68,1.6,NNW,4.6,-,N/A,Rain-Thunderstorm,Light Thunderstorms and Rain,330,2012-10-30 18:40:00
1:10 AM,77.0,75.2,94,29.62,1.6,NW,4.6,-,N/A,Rain,Light Rain,320,2012-10-30 19:40:00
1:40 AM,77.0,75.2,94,29.62,1.6,NNW,6.9,-,N/A,Rain,Light Rain,340,2012-10-30 20:10:00
2:10 AM,77.0,75.2,94,29.62,1.6,NNW,4.6,-,N/A,Rain,Light Rain,330,2012-10-30 20:40:00
2:30 AM,76,74,93,29.65,1,NNE,11.5,,,Rain,Light Rain,20,2012-10-30 21:00:00
2:40 AM,77.0,75.2,94,29.62,1.6,North,10.4,-,N/A,Rain,Light Rain,10,2012-10-30 21:10:00
3:10 AM,77.0,75.2,94,29.59,1.6,NE,11.5,-,N/A,Rain,Light Rain,40,2012-10-30 21:40:00
3:40 AM,77.0,75.2,94,29.59,1.6,North,9.2,-,N/A,Rain,Light Rain,10,2012-10-30 22:10:00
4:10 AM,77.0,75.2,94,29.59,2.2,NNE,10.4,-,N/A,,Light Drizzle,30,2012-10-30 22:40:00
4:40 AM,77.0,75.2,94,29.59,2.2,NE,11.5,-,N/A,,Light Drizzle,40,2012-10-30 23:10:00
5:10 AM,73.4,71.6,94,29.59,1.6,NNE,11.5,-,N/A,Rain,Rain,20,2012-10-30 23:40:00
5:30 AM,74,73,95,29.60,1,North,5.8,,,Rain,Light Rain,0,2012-10-31 00:00:00
5:40 AM,75.2,73.4,94,29.56,1.6,North,9.2,-,N/A,Rain,Rain,360,2012-10-31 00:10:00
6:10 AM,75.2,73.4,94,29.59,1.6,NE,17.3,-,N/A,Rain,Rain,40,2012-10-31 00:40:00
6:40 AM,75.2,73.4,94,29.59,1.6,East,17.3,-,N/A,Rain,Rain,90,2012-10-31 01:10:00
7:10 AM,75.2,73.4,94,29.59,1.6,NE,17.3,-,N/A,Rain,Rain,40,2012-10-31 01:40:00
7:40 AM,77.0,75.2,94,29.62,1.6,North,12.7,-,N/A,Rain,Rain,10,2012-10-31 02:10:00
8:10 AM,77.0,75.2,94,29.62,1.6,North,9.2,-,N/A,Rain,Rain,10,2012-10-31 02:40:00
8:30 AM,79,76,89,29.64,2,NNE,4.6,,,Rain,Light Drizzle,20,2012-10-31 03:00:00
9:10 AM,80.6,75.2,84,29.62,2.5,NNE,13.8,-,N/A,,Light Drizzle,30,2012-10-31 03:40:00
9:40 AM,82.4,77.0,84,29.62,2.5,NNE,12.7,-,N/A,,Light Drizzle,20,2012-10-31 04:10:00
10:10 AM,82.4,75.2,79,29.59,2.5,NNE,20.7,32.2,N/A,,Light Drizzle,30,2012-10-31 04:40:00
11:10 AM,80.6,75.2,84,29.53,0.9,NNE,13.8,25.3,N/A,Rain,Heavy Rain,30,2012-10-31 05:40:00
11:30 AM,80,77,89,29.56,2,NE,11.5,,,Rain,Light Rain,50,2012-10-31 06:00:00
11:40 AM,80.6,75.2,84,29.50,1.6,NE,23.0,34.5,N/A,Rain,Rain,40,2012-10-31 06:10:00
12:40 PM,80.6,75.2,84,29.44,1.2,NE,23.0,34.5,N/A,Rain,Rain Showers,50,2012-10-31 07:10:00
1:10 PM,80.6,77.0,89,29.42,1.2,NE,23.0,34.5,N/A,Rain,Rain Showers,50,2012-10-31 07:40:00
1:40 PM,80.6,77.0,89,29.39,1.1,NE,23.0,34.5,N/A,Rain,Rain Showers,50,2012-10-31 08:10:00
2:30 PM,81,75,78,29.39,1,ENE,23.0,,,Rain,Light Drizzle,70,2012-10-31 09:00:00
2:40 PM,80.6,77.0,89,29.36,1.6,NE,28.8,40.3,N/A,Rain,Rain,50,2012-10-31 09:10:00
3:10 PM,78.8,75.2,89,29.33,1.1,ENE,28.8,40.3,N/A,Rain,Heavy Rain,70,2012-10-31 09:40:00
3:40 PM,78.8,73.4,83,29.33,1.0,ENE,34.5,46.0,N/A,Rain,Rain Showers,70,2012-10-31 10:10:00
4:10 PM,78.8,75.2,89,29.30,1.0,ENE,34.5,46.0,N/A,Rain,Rain Showers,70,2012-10-31 10:40:00
4:40 PM,78.8,75.2,89,29.30,1.0,ENE,40.3,51.8,N/A,Rain,Rain Showers,60,2012-10-31 11:10:00
5:10 PM,78.8,75.2,89,29.27,1.1,ENE,40.3,51.8,N/A,Rain,Rain,70,2012-10-31 11:40:00
5:30 PM,79,76,89,29.29,1,East,17.3,,,Rain,Light Drizzle,90,2012-10-31 12:00:00
6:10 PM,77.0,73.4,89,29.33,1.6,SSE,23.0,34.5,N/A,Rain,Light Rain,150,2012-10-31 12:40:00
7:40 PM,77.0,71.6,83,29.47,2.2,South,19.6,-,N/A,,Light Drizzle,170,2012-10-31 14:10:00
8:10 PM,77.0,71.6,83,29.50,2.2,SSE,21.9,-,N/A,,Light Drizzle,160,2012-10-31 14:40:00
8:30 PM,76,71,80,29.57,2,SE,23.0,,,Rain,Light Rain,140,2012-10-31 15:00:00
8:40 PM,77.0,71.6,83,29.53,2.2,SSE,20.7,32.2,N/A,,Haze,160,2012-10-31 15:10:00
9:10 PM,78.8,71.6,78,29.56,2.2,SSE,24.2,35.7,N/A,,Haze,160,2012-10-31 15:40:00
9:40 PM,77.0,73.4,89,29.56,2.2,South,17.3,28.8,N/A,Rain,Light Rain,170,2012-10-31 16:10:00
10:10 PM,77.0,73.4,89,29.59,2.2,South,17.3,28.8,N/A,,Light Drizzle,180,2012-10-31 16:40:00
10:40 PM,77.0,73.4,89,29.59,2.2,SSE,17.3,28.8,N/A,Rain,Light Rain,160,2012-10-31 17:10:00
11:10 PM,77.0,73.4,89,29.59,2.2,South,18.4,32.2,N/A,Rain,Light Rain,170,2012-10-31 17:40:00
11:30 PM,76,73,86,29.64,1,SE,13.8,,,Rain,Light Drizzle,140,2012-10-31 18:00:00
11:40 PM,77.0,73.4,89,29.59,2.2,South,17.3,28.8,N/A,Rain,Light Rain,180,2012-10-31 18:10:00